Time;durP1;ratioP1;P1;durP2;ratioP2;P2;SDS_P1;SDS_P2;PMS_P1;PMS_P2;Temp;Humidity;BMP_temperature;BMP_pressure;BME280_temperature;BME280_humidity;BME280_pressure;Samples;Min_cycle;Max_cycle;Signal;HPM_P1;HPM_P2
2022/04/27 00:00:38;;;;;;;6.32;3.17;;;;;;;12.25;92.54;100434.91;4931572;29;20039;-83
2022/04/27 00:03:05;;;;;;;6.70;3.50;;;;;;;12.10;92.99;100439.28;4924238;29;20112;-81
2022/04/27 00:05:32;;;;;;;6.80;3.53;;;;;;;12.00;94.07;100433.38;4921191;29;20483;-81
2022/04/27 00:07:58;;;;;;;8.80;3.47;;;;;;;12.07;94.17;100431.66;4913246;29;20126;-78
2022/04/27 00:10:25;;;;;;;7.93;3.63;;;;;;;12.16;93.72;100441.25;4907618;29;20453;-81
2022/04/27 00:12:51;;;;;;;7.65;3.10;;;;;;;12.27;93.03;100441.69;4897855;29;20059;-80
2022/04/27 00:15:20;;;;;;;6.88;3.35;;;;;;;12.26;93.61;100439.22;4910995;29;20036;-81
2022/04/27 00:17:46;;;;;;;8.38;3.25;;;;;;;12.46;92.18;100435.09;4908703;29;20551;-81
2022/04/27 00:20:12;;;;;;;13.75;3.30;;;;;;;12.41;93.07;100442.75;4913698;29;20028;-80
2022/04/27 00:22:41;;;;;;;8.15;3.08;;;;;;;12.25;93.11;100437.56;4909134;29;20037;-82
2022/04/27 00:25:07;;;;;;;7.28;3.05;;;;;;;12.37;92.59;100436.13;4918668;29;20024;-81
2022/04/27 00:27:32;;;;;;;5.18;3.13;;;;;;;12.44;91.91;100437.09;4915287;29;20519;-82
2022/04/27 00:29:59;;;;;;;5.75;3.17;;;;;;;12.60;90.63;100442.28;4914005;29;20066;-80
2022/04/27 00:32:25;;;;;;;12.27;3.10;;;;;;;12.66;90.19;100433.59;4916308;29;20068;-82
2022/04/27 00:34:51;;;;;;;6.00;2.88;;;;;;;12.74;89.72;100441.53;4919787;29;20067;-84
2022/04/27 00:37:18;;;;;;;4.80;2.22;;;;;;;12.76;87.73;100439.50;4926921;29;20040;-81
2022/04/27 00:40:03;;;;;;;8.68;3.08;;;;;;;12.66;87.76;100444.25;4926226;29;20044;-82
2022/04/27 00:42:29;;;;;;;7.47;3.50;;;;;;;12.54;88.87;100448.31;4927525;29;20032;-81
2022/04/27 00:44:57;;;;;;;5.90;3.35;;;;;;;12.38;89.48;100445.78;4911153;29;20041;-84
2022/04/27 00:47:24;;;;;;;8.63;3.40;;;;;;;12.40;89.58;100451.72;4925814;29;20051;-82
2022/04/27 00:49:58;;;;;;;5.78;2.88;;;;;;;12.17;90.47;100450.88;4910148;29;20123;-82
2022/04/27 00:52:24;;;;;;;10.88;3.67;;;;;;;12.03;92.13;100443.66;4895953;29;20110;-82
2022/04/27 00:54:52;;;;;;;10.27;3.15;;;;;;;12.30;90.02;100445.81;4930624;29;20039;-83
2022/04/27 00:57:19;;;;;;;5.30;3.45;;;;;;;12.27;90.13;100451.47;4926378;29;20071;-82
2022/04/27 00:59:46;;;;;;;8.18;2.95;;;;;;;12.18;90.02;100453.38;4924534;29;20558;-82
2022/04/27 01:02:12;;;;;;;7.78;3.38;;;;;;;12.29;90.12;100450.31;4924770;29;20064;-85
2022/04/27 01:04:38;;;;;;;6.57;3.17;;;;;;;12.45;88.62;100452.03;4923917;29;20105;-80
2022/04/27 01:07:07;;;;;;;4.93;3.35;;;;;;;12.54;88.11;100448.31;4924839;29;20040;-81
2022/04/27 01:09:35;;;;;;;6.53;2.80;;;;;;;12.58;87.81;100448.81;4927881;29;20068;-80
2022/04/27 01:12:01;;;;;;;12.57;3.08;;;;;;;12.71;86.76;100449.88;4928335;29;20500;-80
2022/04/27 01:14:50;;;;;;;6.80;3.00;;;;;;;12.71;86.26;100446.38;4918295;29;20024;-81
2022/04/27 01:17:20;;;;;;;7.18;3.00;;;;;;;12.51;88.99;100447.84;4928291;29;20072;-83
2022/04/27 01:19:46;;;;;;;7.22;3.47;;;;;;;12.67;87.85;100453.06;4927653;29;20024;-82
2022/04/27 01:22:11;;;;;;;5.50;3.20;;;;;;;12.55;87.85;100450.00;4938076;28;20040;-81
2022/04/27 01:24:44;;;;;;;7.32;3.20;;;;;;;12.54;88.04;100448.31;4930039;29;20043;-79
2022/04/27 01:27:13;;;;;;;6.28;3.20;;;;;;;12.64;87.59;100454.25;4929134;29;20048;-83
2022/04/27 01:29:42;;;;;;;9.32;3.70;;;;;;;12.75;86.81;100456.50;4930690;29;20036;-81
2022/04/27 01:32:10;;;;;;;6.75;4.13;;;;;;;12.62;88.19;100455.44;4928354;29;20112;-82
2022/04/27 01:34:47;;;;;;;9.90;4.40;;;;;;;12.77;87.31;100457.13;4910385;29;20037;-82
2022/04/27 01:40:00;;;;;;;10.80;5.07;;;;;;;12.32;91.78;100459.78;4925844;29;20070;-82
2022/04/27 01:42:26;;;;;;;9.80;4.95;;;;;;;12.41;91.82;100453.41;4914827;29;20466;-82
2022/04/27 01:44:54;;;;;;;11.43;5.72;;;;;;;12.30;92.24;100457.28;4930725;29;20028;-83
2022/04/27 01:47:20;;;;;;;7.93;4.72;;;;;;;12.46;91.86;100461.69;4930927;29;20067;-82
2022/04/27 01:49:48;;;;;;;8.45;5.78;;;;;;;12.36;92.41;100458.44;4927582;29;20495;-84
2022/04/27 01:54:58;;;;;;;10.10;6.53;;;;;;;12.55;91.74;100467.78;4912985;29;20050;-82
2022/04/27 01:57:24;;;;;;;12.00;7.63;;;;;;;12.53;91.83;100464.47;4928677;29;20107;-83
2022/04/27 02:00:06;;;;;;;13.32;7.47;;;;;;;12.37;93.39;100460.88;4914273;29;20044;-82
2022/04/27 02:02:56;;;;;;;23.05;7.13;;;;;;;12.43;93.04;100462.00;4928417;29;20040;-82
2022/04/27 02:05:22;;;;;;;12.23;6.75;;;;;;;12.46;92.12;100464.34;4910548;29;20044;-83
2022/04/27 02:07:53;;;;;;;11.85;7.05;;;;;;;12.59;91.47;100461.94;4911950;29;20043;-83
2022/04/27 02:10:19;;;;;;;10.38;6.50;;;;;;;12.66;91.22;100467.38;4926709;29;20040;-83
2022/04/27 02:12:45;;;;;;;13.52;7.10;;;;;;;12.65;91.00;100477.19;4896935;29;20042;-82
2022/04/27 02:15:19;;;;;;;14.95;7.40;;;;;;;12.34;92.93;100468.38;4909533;29;20040;-79
2022/04/27 02:17:46;;;;;;;13.93;7.47;;;;;;;12.41;92.33;100475.50;4905719;29;20048;-84
2022/04/27 02:20:13;;;;;;;14.00;6.90;;;;;;;12.24;93.87;100473.09;4926638;29;20136;-82
2022/04/27 02:22:42;;;;;;;11.82;7.53;;;;;;;12.33;93.15;100472.03;4909837;29;20067;-83
2022/04/27 02:25:08;;;;;;;17.48;6.95;;;;;;;12.42;92.65;100476.31;4927471;29;20028;-83
2022/04/27 02:27:33;;;;;;;12.07;6.35;;;;;;;12.22;93.95;100475.09;4910881;29;20109;-83
2022/04/27 02:29:59;;;;;;;12.75;7.10;;;;;;;12.28;93.00;100480.53;4928240;29;20123;-80
2022/04/27 02:32:30;;;;;;;12.85;7.18;;;;;;;12.18;93.21;100473.78;4908902;29;20115;-82
2022/04/27 02:34:55;;;;;;;14.75;8.30;;;;;;;12.25;93.79;100474.75;4920676;29;20040;-81
2022/04/27 02:37:22;;;;;;;16.02;9.20;;;;;;;12.08;95.55;100483.78;4922938;29;20028;-80
2022/04/27 02:39:53;;;;;;;14.60;8.45;;;;;;;11.87;97.82;100482.53;4907407;29;20067;-82
2022/04/27 02:42:19;;;;;;;17.63;9.00;;;;;;;11.93;97.61;100491.66;4895238;29;20051;-82
2022/04/27 02:44:48;;;;;;;11.63;7.90;;;;;;;11.97;97.35;100486.81;4909205;29;20032;-84
2022/04/27 02:47:19;;;;;;;15.18;8.50;;;;;;;11.91;97.89;100491.81;4911887;29;20118;-82
2022/04/27 02:52:33;;;;;;;13.07;7.70;;;;;;;11.78;97.41;100486.22;4926902;29;20197;-82
2022/04/27 02:55:14;;;;;;;24.85;7.75;;;;;;;11.61;98.74;100483.75;4928863;29;20083;-85
2022/04/27 02:57:46;;;;;;;14.77;7.45;;;;;;;11.47;100.00;100490.56;4928901;29;20036;-83
2022/04/27 03:00:12;;;;;;;11.98;7.20;;;;;;;11.46;100.00;100482.78;4895691;29;20044;-82
2022/04/27 03:02:40;;;;;;;14.15;6.90;;;;;;;11.47;99.66;100485.25;4925536;29;20036;-81
2022/04/27 03:05:07;;;;;;;10.60;6.25;;;;;;;11.55;98.09;100484.44;4924409;29;20032;-84
2022/04/27 03:07:32;;;;;;;8.70;5.97;;;;;;;11.62;97.48;100488.06;4907968;29;20500;-81
2022/04/27 03:10:01;;;;;;;11.18;6.10;;;;;;;11.69;96.97;100484.56;4930335;29;20036;-83
2022/04/27 03:12:28;;;;;;;11.52;6.57;;;;;;;11.34;99.03;100485.78;4938039;29;20067;-80
2022/04/27 03:14:55;;;;;;;13.90;6.90;;;;;;;11.08;100.00;100489.63;4937898;29;20040;-82
2022/04/27 03:17:21;;;;;;;13.23;6.50;;;;;;;10.97;100.00;100490.75;4936231;29;20036;-83
2022/04/27 03:19:47;;;;;;;12.75;7.40;;;;;;;11.17;100.00;100504.56;4925935;29;20392;-82
2022/04/27 03:22:13;;;;;;;14.65;7.50;;;;;;;11.13;100.00;100503.22;4907526;29;20523;-81
2022/04/27 03:24:39;;;;;;;13.85;8.30;;;;;;;11.06;100.00;100503.06;4922341;29;20040;-82
2022/04/27 03:27:16;;;;;;;15.10;8.35;;;;;;;10.93;100.00;100501.88;4906746;29;20101;-82
2022/04/27 03:29:42;;;;;;;16.92;8.98;;;;;;;10.96;100.00;100505.03;4906733;29;20123;-82
2022/04/27 03:32:10;;;;;;;17.25;8.18;;;;;;;11.07;100.00;100503.88;4906901;29;20067;-80
2022/04/27 03:34:38;;;;;;;14.90;9.25;;;;;;;11.05;100.00;100505.88;4921214;29;20040;-81
2022/04/27 03:37:04;;;;;;;18.38;9.07;;;;;;;10.98;100.00;100512.81;4905336;29;20032;-83
2022/04/27 03:39:30;;;;;;;14.55;8.38;;;;;;;10.97;100.00;100508.53;4888899;29;20056;-82
2022/04/27 03:41:57;;;;;;;12.23;7.50;;;;;;;11.22;100.00;100518.13;4905260;29;20147;-84
2022/04/27 03:44:23;;;;;;;15.35;8.52;;;;;;;11.29;100.00;100519.13;4921124;29;20051;-81
2022/04/27 03:46:52;;;;;;;14.02;8.57;;;;;;;10.99;100.00;100519.78;4921352;29;20096;-81
2022/04/27 03:49:18;;;;;;;14.45;7.45;;;;;;;11.10;100.00;100530.06;4922516;29;20078;-83
2022/04/27 03:51:44;;;;;;;10.15;6.85;;;;;;;11.27;100.00;100527.25;4928872;29;20043;-83
2022/04/27 03:54:09;;;;;;;16.92;7.25;;;;;;;11.28;100.00;100528.91;4923639;29;20534;-83
2022/04/27 03:56:38;;;;;;;16.15;8.05;;;;;;;11.46;100.00;100539.34;4911024;29;20413;-81
2022/04/27 03:59:03;;;;;;;13.27;8.48;;;;;;;11.22;100.00;100539.34;4926019;29;20040;-81
2022/04/27 04:01:29;;;;;;;13.93;8.10;;;;;;;10.99;100.00;100536.53;4935080;29;20103;-83
2022/04/27 04:03:58;;;;;;;17.13;9.73;;;;;;;10.86;100.00;100533.53;4919246;29;20064;-83
2022/04/27 04:06:25;;;;;;;17.83;9.95;;;;;;;11.00;100.00;100540.84;4916408;29;20127;-82
2022/04/27 04:08:51;;;;;;;11.82;8.85;;;;;;;11.07;100.00;100535.72;4933863;29;20475;-81
2022/04/27 04:11:19;;;;;;;20.77;10.15;;;;;;;10.90;100.00;100545.47;4935830;29;20072;-83
2022/04/27 04:14:05;;;;;;;15.75;10.18;;;;;;;10.78;100.00;100541.47;4926995;29;20112;-81
2022/04/27 04:16:52;;;;;;;14.15;10.23;;;;;;;10.73;100.00;100544.63;4930503;29;20051;-82
2022/04/27 04:19:49;;;;;;;15.20;9.98;;;;;;;10.61;100.00;100548.53;4914933;29;20043;-82
2022/04/27 04:22:35;;;;;;;19.80;10.80;;;;;;;10.65;100.00;100546.41;4921831;29;20052;-80
2022/04/27 04:30:48;;;;;;;16.73;11.02;;;;;;;10.70;100.00;100563.50;4933585;29;20055;-82
2022/04/27 04:33:43;;;;;;;20.95;12.60;;;;;;;10.71;100.00;100562.47;4915430;29;20068;-78
2022/04/27 04:36:10;;;;;;;23.00;12.00;;;;;;;10.84;100.00;100570.78;4897223;29;20043;-84
2022/04/27 04:38:39;;;;;;;21.27;12.60;;;;;;;10.96;100.00;100567.84;4897117;29;20043;-80
2022/04/27 04:41:10;;;;;;;24.50;12.05;;;;;;;10.95;100.00;100568.84;4916141;29;20036;-83
2022/04/27 04:43:52;;;;;;;20.45;12.63;;;;;;;10.78;100.00;100574.09;4927700;29;20041;-84
2022/04/27 04:46:21;;;;;;;22.08;12.15;;;;;;;10.62;100.00;100584.66;4908899;29;20079;-87
2022/04/27 04:48:59;;;;;;;21.15;12.30;;;;;;;10.81;100.00;100587.03;4885926;29;20038;-84
2022/04/27 04:51:45;;;;;;;24.15;11.57;;;;;;;10.84;100.00;100583.22;4926575;29;20051;-88
2022/04/27 04:54:27;;;;;;;22.55;11.65;;;;;;;10.82;100.00;100580.75;4896107;29;20135;-83
2022/04/27 04:57:15;;;;;;;18.55;11.52;;;;;;;10.67;100.00;100587.66;4912309;29;20092;-90
2022/04/27 04:59:59;;;;;;;17.75;12.27;;;;;;;10.63;100.00;100596.94;4940177;29;20118;-85
2022/04/27 05:02:24;;;;;;;24.55;12.52;;;;;;;10.74;100.00;100591.31;4946000;29;20035;-85
2022/04/27 05:04:53;;;;;;;20.73;12.73;;;;;;;10.81;100.00;100594.16;4937986;29;20685;-83
2022/04/27 05:07:37;;;;;;;25.67;12.25;;;;;;;10.78;100.00;100599.78;4940895;29;20051;-84
2022/04/27 05:10:22;;;;;;;19.05;11.80;;;;;;;10.72;100.00;100595.97;4944217;29;20032;-84
2022/04/27 05:13:06;;;;;;;22.48;11.98;;;;;;;10.87;100.00;100601.47;4945039;29;20043;-84
2022/04/27 05:15:48;;;;;;;23.73;11.73;;;;;;;10.73;100.00;100612.69;4933462;29;20060;-85
2022/04/27 05:18:47;;;;;;;19.52;11.52;;;;;;;10.73;100.00;100608.22;4911960;29;20040;-90
2022/04/27 05:21:54;;;;;;;21.85;11.35;;;;;;;10.77;100.00;100611.41;4907735;29;20106;-89
2022/04/27 05:24:36;;;;;;;22.25;12.05;;;;;;;10.73;100.00;100613.53;4901355;29;20077;-86
2022/04/27 05:27:34;;;;;;;19.63;11.50;;;;;;;11.00;100.00;100620.41;4894438;29;20052;-86
2022/04/27 05:33:34;;;;;;;18.52;11.13;;;;;;;11.21;100.00;100622.56;4905238;29;20388;-91
2022/04/27 05:36:23;;;;;;;19.23;11.93;;;;;;;11.06;100.00;100629.53;4900872;29;20041;-88
2022/04/27 05:39:07;;;;;;;22.73;12.07;;;;;;;10.94;100.00;100633.50;4906333;29;20047;-89
2022/04/27 05:41:56;;;;;;;19.55;11.20;;;;;;;10.89;100.00;100632.13;4901702;29;20041;-86
2022/04/27 05:44:42;;;;;;;19.00;12.05;;;;;;;11.08;100.00;100638.13;4877588;29;20049;-86
2022/04/27 05:47:26;;;;;;;24.13;13.30;;;;;;;11.15;100.00;100634.69;4897482;29;20044;-87
2022/04/27 05:50:13;;;;;;;23.45;13.77;;;;;;;11.33;100.00;100638.00;4898720;29;20054;-86
2022/04/27 05:53:01;;;;;;;23.20;13.80;;;;;;;11.21;100.00;100641.16;4913905;29;20041;-87
2022/04/27 05:55:43;;;;;;;24.73;14.73;;;;;;;11.22;100.00;100640.16;4916232;29;20045;-85
2022/04/27 05:58:41;;;;;;;28.17;15.80;;;;;;;11.31;100.00;100642.66;4890289;29;20048;-85
2022/04/27 06:01:31;;;;;;;30.25;15.02;;;;;;;11.52;100.00;100646.66;4912889;29;20104;-86
2022/04/27 06:04:22;;;;;;;28.65;15.20;;;;;;;11.75;100.00;100645.88;4889983;29;20048;-85
2022/04/27 06:07:08;;;;;;;27.80;15.65;;;;;;;12.02;100.00;100657.16;4911798;29;20048;-88
2022/04/27 06:09:34;;;;;;;23.92;14.07;;;;;;;12.32;100.00;100656.44;4893493;29;20460;-87
2022/04/27 06:12:11;;;;;;;26.30;14.10;;;;;;;12.35;100.00;100664.06;4895599;29;20039;-87
2022/04/27 06:14:46;;;;;;;24.00;13.85;;;;;;;12.40;100.00;100664.38;4913407;29;20089;-87
2022/04/27 06:17:45;;;;;;;19.55;12.77;;;;;;;12.54;100.00;100666.31;4913265;29;20036;-85
2022/04/27 06:20:33;;;;;;;77.57;16.33;;;;;;;12.64;100.00;100672.28;4895534;29;20093;-87
2022/04/27 06:23:05;;;;;;;129.68;17.23;;;;;;;12.60;100.00;100672.78;4892467;29;20049;-89
2022/04/27 06:25:34;;;;;;;375.10;33.73;;;;;;;12.65;100.00;100673.94;4895053;29;20048;-87
2022/04/27 06:28:28;;;;;;;159.82;19.88;;;;;;;12.66;100.00;100680.91;4909444;29;20055;-86
2022/04/27 06:30:54;;;;;;;63.63;14.77;;;;;;;12.68;100.00;100686.06;4894163;29;20093;-86
2022/04/27 06:33:21;;;;;;;41.22;14.48;;;;;;;12.76;100.00;100686.84;4897088;29;20044;-87
2022/04/27 06:35:56;;;;;;;34.53;13.75;;;;;;;12.82;100.00;100686.19;4922545;29;20069;-87
2022/04/27 06:38:29;;;;;;;211.32;24.45;;;;;;;12.85;100.00;100683.16;4923215;29;20044;-84
2022/04/27 06:41:05;;;;;;;86.07;19.15;;;;;;;13.08;100.00;100695.69;4923385;29;20036;-87
2022/04/27 06:43:51;;;;;;;480.85;48.15;;;;;;;13.07;100.00;100694.03;4923565;29;20100;-87
2022/04/27 06:46:35;;;;;;;190.90;25.20;;;;;;;13.20;100.00;100696.97;4922206;29;20048;-87
2022/04/27 06:49:20;;;;;;;201.55;25.23;;;;;;;13.16;100.00;100699.16;4900368;29;20051;-87
2022/04/27 06:52:14;;;;;;;118.78;21.67;;;;;;;13.15;100.00;100702.03;4871915;29;20045;-86
2022/04/27 06:55:00;;;;;;;57.85;19.48;;;;;;;13.20;100.00;100695.16;4857706;29;20061;-89
2022/04/27 06:57:45;;;;;;;33.60;18.35;;;;;;;13.22;100.00;100697.66;4909637;29;20068;-85
2022/04/27 07:00:14;;;;;;;36.92;19.02;;;;;;;13.28;100.00;100702.28;4942883;29;20036;-85
2022/04/27 07:02:43;;;;;;;42.38;20.73;;;;;;;13.38;100.00;100703.72;4927687;29;20051;-84
2022/04/27 07:05:12;;;;;;;40.13;22.38;;;;;;;13.48;100.00;100708.81;4931098;29;20056;-84
2022/04/27 07:07:38;;;;;;;37.05;23.75;;;;;;;13.52;100.00;100709.28;4895808;29;20076;-86
2022/04/27 07:10:04;;;;;;;41.53;23.55;;;;;;;13.48;100.00;100714.13;4928521;29;20087;-85
2022/04/27 07:12:32;;;;;;;47.70;24.13;;;;;;;13.44;100.00;100718.16;4930967;29;20198;-85
2022/04/27 07:15:00;;;;;;;49.53;25.17;;;;;;;13.46;100.00;100716.97;4929059;29;20036;-86
2022/04/27 07:17:34;;;;;;;43.53;24.02;;;;;;;13.54;100.00;100717.91;4929449;29;20100;-87
2022/04/27 07:20:04;;;;;;;50.33;25.00;;;;;;;13.57;100.00;100717.56;4928562;29;20040;-86
2022/04/27 07:22:32;;;;;;;44.95;24.92;;;;;;;13.91;100.00;100718.81;4928475;29;20492;-85
2022/04/27 07:25:02;;;;;;;59.97;28.88;;;;;;;14.04;100.00;100720.06;4924644;29;20032;-84
2022/04/27 07:27:27;;;;;;;49.47;30.10;;;;;;;14.11;100.00;100713.00;4926951;29;20135;-84
2022/04/27 07:29:53;;;;;;;50.75;30.15;;;;;;;14.89;100.00;100710.69;4923097;29;20063;-83
2022/04/27 07:32:19;;;;;;;64.18;32.33;;;;;;;15.24;100.00;100719.78;4924816;29;20028;-84
2022/04/27 07:34:51;;;;;;;55.55;31.05;;;;;;;15.75;100.00;100713.34;4924297;29;20068;-85
2022/04/27 07:37:17;;;;;;;60.13;31.67;;;;;;;16.18;97.48;100718.66;4925498;29;20499;-86
2022/04/27 07:39:47;;;;;;;44.95;26.95;;;;;;;17.44;90.99;100727.22;4925230;29;20214;-87
2022/04/27 07:42:12;;;;;;;49.45;28.17;;;;;;;17.74;86.24;100733.94;4920291;29;20040;-85
2022/04/27 07:44:38;;;;;;;42.00;26.05;;;;;;;17.87;84.65;100743.84;4922752;29;20055;-83
2022/04/27 07:47:08;;;;;;;42.10;27.17;;;;;;;17.78;85.67;100739.72;4926012;29;20036;-87
2022/04/27 07:49:35;;;;;;;47.30;26.73;;;;;;;18.19;83.90;100747.63;4907714;29;20051;-88
2022/04/27 07:52:03;;;;;;;37.42;26.95;;;;;;;18.69;80.89;100744.31;4924669;29;20456;-86
2022/04/27 07:54:32;;;;;;;45.53;26.27;;;;;;;18.81;82.65;100753.38;4927248;29;20028;-88
2022/04/27 07:56:58;;;;;;;37.13;24.95;;;;;;;19.07;80.19;100758.66;4914061;29;20096;-85
2022/04/27 07:59:24;;;;;;;62.05;27.08;;;;;;;18.84;78.98;100758.31;4928077;29;20024;-85
2022/04/27 08:01:50;;;;;;;51.13;26.55;;;;;;;18.70;79.27;100762.06;4923998;29;20832;-88
2022/04/27 08:04:16;;;;;;;42.90;26.50;;;;;;;19.12;79.30;100765.28;4921550;29;20119;-85
2022/04/27 08:06:42;;;;;;;41.53;25.40;;;;;;;19.95;74.26;100764.28;4924352;29;20742;-84
2022/04/27 08:09:08;;;;;;;43.45;25.77;;;;;;;19.88;73.74;100772.38;4923589;29;20036;-84
2022/04/27 08:11:40;;;;;;;35.40;25.15;;;;;;;20.27;71.39;100770.47;4924880;29;20035;-87
2022/04/27 08:14:06;;;;;;;30.17;22.40;;;;;;;21.19;68.47;100783.06;4922972;29;20099;-84
2022/04/27 08:16:35;;;;;;;43.42;23.55;;;;;;;19.99;71.02;100785.13;4921145;29;20103;-85
2022/04/27 08:19:01;;;;;;;36.97;23.65;;;;;;;19.08;75.93;100781.81;4922879;29;20044;-86
2022/04/27 08:21:27;;;;;;;39.13;24.60;;;;;;;19.30;75.53;100784.22;4922349;29;20036;-83
2022/04/27 08:23:59;;;;;;;38.83;24.98;;;;;;;19.47;76.18;100782.72;4922131;29;20028;-82
2022/04/27 08:26:28;;;;;;;39.88;25.48;;;;;;;19.73;74.41;100779.91;4921234;29;20047;-83
2022/04/27 08:28:53;;;;;;;37.03;24.85;;;;;;;20.31;72.11;100785.16;4921072;29;20044;-82
2022/04/27 08:31:20;;;;;;;42.28;24.77;;;;;;;20.50;69.83;100784.16;4921981;29;20521;-83
2022/04/27 08:33:46;;;;;;;33.35;23.38;;;;;;;20.73;68.52;100791.63;4924498;29;20063;-84
2022/04/27 08:36:11;;;;;;;36.45;24.98;;;;;;;20.57;70.15;100788.44;4930536;29;20059;-85
2022/04/27 08:38:46;;;;;;;36.03;25.58;;;;;;;20.59;69.93;100790.91;4932019;29;20061;-81
2022/04/27 08:41:14;;;;;;;36.60;25.00;;;;;;;20.56;71.14;100792.19;4930009;29;20047;-83
2022/04/27 08:43:40;;;;;;;36.05;26.05;;;;;;;20.16;71.40;100798.06;4931047;29;20046;-83
2022/04/27 08:46:08;;;;;;;42.33;27.23;;;;;;;19.30;75.51;100805.72;4933164;29;20097;-84
2022/04/27 08:48:34;;;;;;;39.67;27.05;;;;;;;18.61;80.64;100798.22;4937047;29;20051;-82
2022/04/27 08:51:04;;;;;;;38.50;26.95;;;;;;;18.60;81.72;100799.22;4942594;29;20112;-82
2022/04/27 08:53:36;;;;;;;38.85;27.08;;;;;;;19.01;78.08;100796.28;4945745;29;20104;-80
2022/04/27 08:56:02;;;;;;;49.42;26.50;;;;;;;19.43;76.22;100797.63;4934161;29;20048;-84
2022/04/27 08:58:29;;;;;;;45.03;26.33;;;;;;;19.98;73.74;100796.94;4918952;29;20056;-84
2022/04/27 09:01:00;;;;;;;41.25;26.30;;;;;;;20.56;69.11;100791.34;4900532;29;20052;-85
2022/04/27 09:03:33;;;;;;;39.30;25.13;;;;;;;20.73;68.95;100791.63;4917780;29;20133;-81
2022/04/27 09:06:13;;;;;;;40.03;24.40;;;;;;;20.51;68.69;100793.91;4930793;29;20172;-82
2022/04/27 09:09:01;;;;;;;35.47;25.17;;;;;;;20.76;67.80;100797.38;4931295;29;20125;-82
2022/04/27 09:11:28;;;;;;;38.10;25.83;;;;;;;20.59;68.57;100798.97;4931685;29;20048;-81
2022/04/27 09:13:58;;;;;;;38.95;23.92;;;;;;;20.76;67.94;100797.38;4929209;29;20032;-81
2022/04/27 09:22:53;;;;;;;40.35;25.30;;;;;;;20.33;69.47;100801.91;4929396;29;20047;-83
2022/04/27 09:25:51;;;;;;;43.65;26.75;;;;;;;19.73;73.91;100801.44;4926879;29;20083;-85
2022/04/27 09:40:11;;;;;;;41.10;27.23;;;;;;;20.66;70.59;100802.44;5074524;23;20038;-86
2022/04/27 09:43:35;;;;;;;42.58;26.67;;;;;;;20.69;69.96;100791.22;4868182;29;20131;-86
2022/04/27 09:56:06;;;;;;;38.13;23.50;;;;;;;22.29;62.11;100814.19;4119932;23;20044;-86
2022/04/27 09:58:43;;;;;;;32.58;23.02;;;;;;;22.02;61.72;100808.38;5047369;23;20055;-85
2022/04/27 10:01:16;;;;;;;34.75;23.35;;;;;;;21.97;62.22;100809.06;4960813;29;20032;-87
2022/04/27 10:03:57;;;;;;;34.85;25.08;;;;;;;21.97;61.15;100794.75;4959957;29;20067;-89
2022/04/27 10:07:07;;;;;;;34.53;22.48;;;;;;;22.01;61.58;100804.00;4946518;29;20046;-87
2022/04/27 10:10:12;;;;;;;34.70;22.52;;;;;;;22.21;60.91;100806.41;4942554;29;20058;-88
2022/04/27 10:13:06;;;;;;;29.10;20.92;;;;;;;22.03;63.26;100805.44;4929573;29;20058;-87
2022/04/27 10:16:15;;;;;;;32.13;21.38;;;;;;;21.93;61.39;100797.09;4948501;29;20034;-87
2022/04/27 10:22:01;;;;;;;31.73;22.03;;;;;;;21.80;63.94;100809.91;4884563;27;20055;-82
2022/04/27 10:25:06;;;;;;;38.17;23.30;;;;;;;21.80;63.98;100797.25;4961584;28;20035;-81
2022/04/27 10:27:53;;;;;;;39.30;24.35;;;;;;;22.34;60.69;100806.25;4961199;29;20040;-81
2022/04/27 10:31:13;;;;;;;32.38;20.08;;;;;;;22.22;60.06;100791.88;4961172;29;20062;-81
2022/04/27 10:37:07;;;;;;;33.50;22.40;;;;;;;21.90;61.83;100794.84;4921930;29;20087;-81
2022/04/27 10:40:47;;;;;;;27.88;19.58;;;;;;;21.06;64.28;100782.16;4917250;29;20059;-81
2022/04/27 10:43:47;;;;;;;31.17;20.42;;;;;;;20.43;69.51;100780.69;4848409;29;20067;-81
2022/04/27 10:46:39;;;;;;;33.50;20.95;;;;;;;20.50;70.07;100784.16;4846395;29;20058;-81
2022/04/27 10:49:36;;;;;;;31.05;20.55;;;;;;;20.44;69.08;100777.78;4941975;23;20048;-82
2022/04/27 10:52:50;;;;;;;25.50;17.67;;;;;;;20.68;65.43;100776.13;4974961;23;20030;-92
2022/04/27 10:55:34;;;;;;;25.73;16.45;;;;;;;21.28;62.92;100787.94;4903843;29;20071;-90
2022/04/27 10:58:16;;;;;;;26.73;17.50;;;;;;;21.39;62.92;100786.34;4920527;29;20435;-89
2022/04/27 11:01:03;;;;;;;28.77;20.08;;;;;;;20.88;65.07;100784.03;4920235;29;20040;-91
2022/04/27 11:03:29;;;;;;;30.38;19.08;;;;;;;20.46;65.51;100789.16;4921298;29;20040;-93
2022/04/27 11:05:59;;;;;;;27.38;19.20;;;;;;;20.11;67.05;100783.41;4919908;29;20036;-89
2022/04/27 11:08:39;;;;;;;29.15;18.77;;;;;;;19.80;69.25;100778.00;4922444;29;20040;-89
2022/04/27 11:11:09;;;;;;;30.70;20.75;;;;;;;19.28;70.81;100781.75;4921822;29;20119;-92
2022/04/27 11:13:36;;;;;;;38.30;24.48;;;;;;;19.21;68.81;100785.50;4909491;29;20040;-93
2022/04/27 11:16:20;;;;;;;30.38;20.25;;;;;;;19.38;70.57;100784.81;4908732;29;20044;-92
2022/04/27 11:19:11;;;;;;;30.08;19.48;;;;;;;19.78;70.33;100787.34;4929966;29;20047;-93
2022/04/27 11:22:09;;;;;;;25.25;16.88;;;;;;;20.82;65.22;100785.72;4903332;29;20055;-93
2022/04/27 11:24:35;;;;;;;23.25;16.05;;;;;;;22.12;59.13;100790.56;4957938;23;20071;-92
2022/04/27 11:27:03;;;;;;;25.73;15.23;;;;;;;22.66;52.91;100791.38;4895956;29;20043;-91
2022/04/27 11:29:32;;;;;;;24.33;16.88;;;;;;;22.20;55.91;100784.00;4942094;29;20027;-90
2022/04/27 11:31:58;;;;;;;25.52;16.23;;;;;;;22.97;54.05;100784.75;4945282;29;20042;-88
2022/04/27 11:34:26;;;;;;;26.58;17.70;;;;;;;23.57;51.71;100788.78;4944389;29;20051;-91
2022/04/27 11:36:54;;;;;;;24.13;15.38;;;;;;;23.57;52.40;100790.66;4944412;29;20099;-92
2022/04/27 11:39:25;;;;;;;26.83;17.15;;;;;;;22.93;54.77;100781.75;4941012;29;20040;-86
2022/04/27 11:42:00;;;;;;;26.80;16.75;;;;;;;22.33;56.24;100782.97;4924643;29;20043;-91
2022/04/27 11:44:30;;;;;;;27.05;17.60;;;;;;;21.33;59.29;100781.88;4938849;29;20091;-88
2022/04/27 11:46:57;;;;;;;30.02;17.52;;;;;;;21.17;60.07;100782.47;4923443;29;20054;-90
2022/04/27 11:49:23;;;;;;;26.35;16.77;;;;;;;20.72;60.98;100779.19;4942292;29;20487;-91
2022/04/27 11:51:57;;;;;;;25.85;16.33;;;;;;;20.71;61.66;100781.06;4941594;29;20028;-88
2022/04/27 11:54:31;;;;;;;24.33;16.33;;;;;;;20.85;62.57;100774.50;4941873;29;20043;-88
2022/04/27 11:57:07;;;;;;;30.73;17.85;;;;;;;20.77;62.94;100771.28;4931954;29;20046;-90
2022/04/27 11:59:43;;;;;;;31.48;16.80;;;;;;;20.65;63.65;100771.16;4947227;29;20063;-90
2022/04/27 12:02:10;;;;;;;27.70;18.15;;;;;;;20.62;62.43;100774.31;4922308;29;20024;-91
2022/04/27 12:04:39;;;;;;;28.23;17.27;;;;;;;20.47;62.87;100771.13;4919205;29;20108;-91
2022/04/27 12:07:17;;;;;;;28.17;18.25;;;;;;;20.05;64.34;100770.78;4922815;29;20031;-85
2022/04/27 12:10:05;;;;;;;28.13;16.77;;;;;;;19.96;65.73;100766.72;4936323;29;20118;-88
2022/04/27 12:12:37;;;;;;;27.80;15.52;;;;;;;19.88;64.98;100761.63;4937846;29;20116;-87
2022/04/27 12:15:12;;;;;;;25.05;16.00;;;;;;;20.13;64.17;100757.09;4938633;29;20031;-87
2022/04/27 12:17:55;;;;;;;27.83;16.35;;;;;;;20.34;63.61;100774.78;4909178;29;20119;-85
2022/04/27 12:20:39;;;;;;;;;;;;;;;19.98;63.42;100772.75;4936007;29;20518;-84
2022/04/27 12:23:06;;;;;;;34.08;18.25;;;;;;;19.79;64.90;100773.66;4934783;29;19923;-83
2022/04/27 12:25:49;;;;;;;30.15;18.20;;;;;;;19.76;63.96;100767.88;4939266;29;20487;-83
2022/04/27 12:28:18;;;;;;;26.50;16.63;;;;;;;19.69;65.47;100770.63;4949722;28;20043;-82
2022/04/27 12:30:54;;;;;;;27.08;14.68;;;;;;;19.84;63.27;100760.41;4937234;29;20067;-84
2022/04/27 12:33:24;;;;;;;23.77;16.52;;;;;;;19.74;62.00;100773.50;4955299;28;20091;-85